Elizabeth Anne — WDD9654 — position and weather

sailwx.info

Track history (hours):
 
Tides and Currents Weather Stations Pressure Air Temp Water Temp Dewpoint Dewpoint Depression Visibility Wind Speed Wind Dir Waves Ship Positions

Elizabeth Anne

Owner: Vane Line Bunkering, Philadelphia, PA. More information available from US FCC via Universal Licensing System and Coast Guard Vessel Documentation Center.

Last reported at 2017-Oct-16 22:27 UTC. Time now 2017-Oct-17 13:05 UTC.
Position N 40°49' W 073°46'.

Length 20 m; draft 2 m.

Type: Tug. MMSI: 367314480.

Date/timePositionNaut miles runAvg speedWind from/ knotsBaromVisibWave heightAir tempDewpointWater temp
2017-Oct-16 22:27N 40°49' W 073°46'0 0.0
2017-Oct-16 21:57N 40°49' W 073°46'0 0.0
2017-Oct-16 15:43N 40°49' W 073°46'0 0.0
2017-Oct-15 21:43N 40°49' W 073°46'0 0.0
2017-Oct-15 15:41N 40°49' W 073°46'0 0.0
2017-Oct-15 14:36N 40°49' W 073°46'0 0.0
2017-Oct-15 13:52N 40°49' W 073°46'0 0.0
2017-Oct-15 13:19N 40°49' W 073°46'0 0.0
2017-Oct-15 05:36N 40°49' W 073°46'0 0.0
2017-Oct-15 05:24N 40°49' W 073°46'0 0.0
2017-Oct-15 04:54N 40°49' W 073°46'0 0.0
2017-Oct-15 04:19N 40°49' W 073°46'0 0.0
2017-Oct-15 03:49N 40°49' W 073°46'0 0.0
2017-Oct-15 03:25N 40°49' W 073°46'0 0.0
2017-Oct-13 18:23N 40°49' W 073°46'2 3.7
2017-Oct-13 17:49N 40°48' W 073°49'1 1.6
2017-Oct-13 17:25N 40°48' W 073°49'1 1.9
2017-Oct-13 17:00N 40°48' W 073°50'0 0.0
2017-Oct-13 16:30N 40°48' W 073°51'0 0.1
2017-Oct-13 16:00N 40°48' W 073°50'0 0.2
2017-Oct-13 15:30N 40°48' W 073°51'0 0.1
2017-Oct-13 15:00N 40°48' W 073°51'0 0.0
2017-Oct-13 14:30N 40°48' W 073°51'1 2.3
2017-Oct-13 13:59N 40°48' W 073°49'1 0.1
2017-Oct-12 22:20N 40°48' W 073°47'2 6.3
2017-Oct-12 22:00N 40°48' W 073°50'3 6.1
2017-Oct-12 21:29N 40°48' W 073°54'4 8.2
2017-Oct-12 21:00N 40°48' W 073°49'0 0.0
2017-Oct-10 22:10N 40°48' W 073°49'1 6.1
2017-Oct-10 21:57N 40°48' W 073°51'2 5.4
2017-Oct-10 21:30N 40°48' W 073°54'  
Track history (hours):
 
Tides and Currents Weather Stations Pressure Air Temp Water Temp Dewpoint Dewpoint Depression Visibility Wind Speed Wind Dir Waves Ship Positions

Elizabeth Anne

Owner: Vane Line Bunkering, Philadelphia, PA. More information available from US FCC via Universal Licensing System and Coast Guard Vessel Documentation Center.

Last reported at 2017-Oct-16 22:27 UTC. Time now 2017-Oct-17 13:05 UTC.
Position N 40°49' W 073°46'.

Length 20 m; draft 2 m.

Type: Tug. MMSI: 367314480.

Date/timePositionNaut miles runAvg speedWind from/ knotsBaromVisibWave heightAir tempDewpointWater temp
2017-Oct-16 22:27N 40°49' W 073°46'0 0.0
2017-Oct-16 21:57N 40°49' W 073°46'0 0.0
2017-Oct-16 15:43N 40°49' W 073°46'0 0.0
2017-Oct-15 21:43N 40°49' W 073°46'0 0.0
2017-Oct-15 15:41N 40°49' W 073°46'0 0.0
2017-Oct-15 14:36N 40°49' W 073°46'0 0.0
2017-Oct-15 13:52N 40°49' W 073°46'0 0.0
2017-Oct-15 13:19N 40°49' W 073°46'0 0.0
2017-Oct-15 05:36N 40°49' W 073°46'0 0.0
2017-Oct-15 05:24N 40°49' W 073°46'0 0.0
2017-Oct-15 04:54N 40°49' W 073°46'0 0.0
2017-Oct-15 04:19N 40°49' W 073°46'0 0.0
2017-Oct-15 03:49N 40°49' W 073°46'0 0.0
2017-Oct-15 03:25N 40°49' W 073°46'0 0.0
2017-Oct-13 18:23N 40°49' W 073°46'2 3.7
2017-Oct-13 17:49N 40°48' W 073°49'1 1.6
2017-Oct-13 17:25N 40°48' W 073°49'1 1.9
2017-Oct-13 17:00N 40°48' W 073°50'0 0.0
2017-Oct-13 16:30N 40°48' W 073°51'0 0.1
2017-Oct-13 16:00N 40°48' W 073°50'0 0.2
2017-Oct-13 15:30N 40°48' W 073°51'0 0.1
2017-Oct-13 15:00N 40°48' W 073°51'0 0.0
2017-Oct-13 14:30N 40°48' W 073°51'1 2.3
2017-Oct-13 13:59N 40°48' W 073°49'1 0.1
2017-Oct-12 22:20N 40°48' W 073°47'2 6.3
2017-Oct-12 22:00N 40°48' W 073°50'3 6.1
2017-Oct-12 21:29N 40°48' W 073°54'4 8.2
2017-Oct-12 21:00N 40°48' W 073°49'0 0.0
2017-Oct-10 22:10N 40°48' W 073°49'1 6.1
2017-Oct-10 21:57N 40°48' W 073°51'2 5.4
2017-Oct-10 21:30N 40°48' W 073°54'  

Dump ship's entire track history